Time;durP1;ratioP1;P1;durP2;ratioP2;P2;SDS_P1;SDS_P2;PMS_P1;PMS_P2;Temp;Humidity;BMP_temperature;BMP_pressure;BME280_temperature;BME280_humidity;BME280_pressure;Samples;Min_cycle;Max_cycle;Signal;HPM_P1;HPM_P2
2021/10/29 00:01:02;;;;;;;11.23;7.38;;;10.60;99.90;;;;;;5011450;28;20025;-72
2021/10/29 00:03:28;;;;;;;18.13;8.10;;;10.60;99.90;;;;;;5017612;28;20074;-72
2021/10/29 00:05:54;;;;;;;11.82;8.05;;;10.50;99.90;;;;;;5016960;28;20038;-73
2021/10/29 00:08:20;;;;;;;11.98;8.27;;;10.50;99.90;;;;;;5010543;28;20354;-73
2021/10/29 00:10:45;;;;;;;10.50;7.47;;;10.40;99.90;;;;;;5014460;28;20037;-73
2021/10/29 00:13:12;;;;;;;11.65;7.60;;;10.50;99.90;;;;;;5014765;28;20037;-72
2021/10/29 00:15:38;;;;;;;11.13;7.28;;;10.50;99.90;;;;;;5011217;28;20064;-73
2021/10/29 00:18:04;;;;;;;13.32;8.93;;;10.50;99.90;;;;;;5016145;28;20508;-73
2021/10/29 00:20:31;;;;;;;12.60;8.10;;;10.50;99.90;;;;;;5017328;28;20022;-73
2021/10/29 00:22:56;;;;;;;15.20;8.88;;;10.40;99.90;;;;;;5014943;28;20025;-73
2021/10/29 00:25:22;;;;;;;14.25;8.15;;;10.40;99.90;;;;;;5009989;28;20093;-72
2021/10/29 00:27:48;;;;;;;11.38;7.70;;;10.40;99.90;;;;;;5013653;28;20037;-72
2021/10/29 00:30:14;;;;;;;12.82;8.05;;;10.30;99.90;;;;;;5018933;28;20038;-72
2021/10/29 00:32:40;;;;;;;12.95;8.52;;;10.30;99.90;;;;;;5013319;28;20036;-73
2021/10/29 00:35:06;;;;;;;12.32;7.80;;;10.20;99.90;;;;;;5014417;28;20547;-73
2021/10/29 00:37:37;;;;;;;11.63;7.80;;;10.20;99.90;;;;;;5013962;28;20021;-73
2021/10/29 00:40:05;;;;;;;13.65;8.52;;;10.30;99.90;;;;;;5016969;28;20037;-73
2021/10/29 00:42:30;;;;;;;14.10;8.68;;;10.20;99.90;;;;;;5012954;28;20025;-73
2021/10/29 00:44:56;;;;;;;12.70;8.63;;;10.10;99.90;;;;;;5008139;28;20052;-73
2021/10/29 00:47:22;;;;;;;15.73;9.00;;;10.20;99.90;;;;;;5011949;28;20393;-72
2021/10/29 00:49:48;;;;;;;10.48;7.82;;;10.10;99.90;;;;;;5020271;28;20021;-73
2021/10/29 00:52:13;;;;;;;13.82;9.20;;;10.10;99.90;;;;;;5012189;28;20037;-70
2021/10/29 00:54:40;;;;;;;16.20;9.82;;;10.00;99.90;;;;;;5017653;28;20051;-71
2021/10/29 00:57:05;;;;;;;13.85;8.75;;;10.00;99.90;;;;;;5014242;28;20037;-73
2021/10/29 00:59:31;;;;;;;15.07;10.00;;;9.90;99.90;;;;;;5016316;28;20029;-73
2021/10/29 01:01:57;;;;;;;16.70;9.20;;;10.00;99.90;;;;;;5014291;28;20141;-71
2021/10/29 01:04:25;;;;;;;13.25;10.02;;;10.00;99.90;;;;;;5016500;28;20609;-70
2021/10/29 01:06:51;;;;;;;15.15;9.32;;;9.90;99.90;;;;;;5031777;28;20033;-71
2021/10/29 01:09:17;;;;;;;12.30;8.63;;;9.90;99.90;;;;;;5021615;28;20036;-71
2021/10/29 01:11:43;;;;;;;12.90;8.98;;;9.90;99.90;;;;;;5018284;28;20528;-71
2021/10/29 01:14:09;;;;;;;13.68;9.93;;;9.90;99.90;;;;;;5013273;28;20503;-71
2021/10/29 01:16:35;;;;;;;18.42;9.93;;;9.90;99.90;;;;;;5017381;28;20032;-72
2021/10/29 01:19:01;;;;;;;12.65;9.15;;;9.90;99.90;;;;;;5012885;28;20041;-72
2021/10/29 01:21:27;;;;;;;14.18;9.70;;;9.90;99.90;;;;;;5020788;28;20118;-71
2021/10/29 01:23:53;;;;;;;12.48;8.75;;;9.90;99.90;;;;;;5021662;28;20034;-71
2021/10/29 01:26:19;;;;;;;13.52;8.95;;;9.90;99.90;;;;;;5016650;28;20100;-71
2021/10/29 01:28:46;;;;;;;15.70;8.95;;;9.90;99.90;;;;;;5012217;28;20048;-72
2021/10/29 01:31:14;;;;;;;13.50;9.50;;;9.90;99.90;;;;;;5010122;28;20025;-71
2021/10/29 01:33:39;;;;;;;13.40;9.05;;;9.90;99.90;;;;;;5019142;28;20477;-71
2021/10/29 01:36:05;;;;;;;15.43;9.43;;;9.80;99.90;;;;;;5014639;28;20045;-72
2021/10/29 01:38:36;;;;;;;14.27;9.55;;;9.90;99.90;;;;;;5016020;28;20520;-71
2021/10/29 01:41:03;;;;;;;15.05;9.65;;;9.90;99.90;;;;;;5010295;28;20062;-71
2021/10/29 01:43:29;;;;;;;16.00;9.50;;;9.90;99.90;;;;;;5014902;28;20041;-71
2021/10/29 01:45:56;;;;;;;15.38;9.57;;;9.80;99.90;;;;;;5013886;28;20034;-71
2021/10/29 01:48:25;;;;;;;14.20;9.93;;;9.80;99.90;;;;;;5012123;28;20037;-72
2021/10/29 01:50:51;;;;;;;16.98;10.18;;;9.70;99.90;;;;;;5009134;28;20054;-73
2021/10/29 01:53:17;;;;;;;15.50;10.50;;;9.70;99.90;;;;;;5020812;28;20064;-72
2021/10/29 01:55:43;;;;;;;19.02;9.77;;;9.70;99.90;;;;;;5011045;28;20036;-72
2021/10/29 01:58:08;;;;;;;17.23;10.40;;;9.60;99.90;;;;;;5010500;28;20376;-71
2021/10/29 02:00:34;;;;;;;17.88;10.10;;;9.70;99.90;;;;;;5013002;28;20112;-72
2021/10/29 02:03:00;;;;;;;15.27;10.65;;;9.60;99.90;;;;;;5009507;28;20477;-72
2021/10/29 02:05:26;;;;;;;17.98;10.70;;;9.60;99.90;;;;;;5007026;28;20033;-72
2021/10/29 02:07:51;;;;;;;16.35;10.88;;;9.50;99.90;;;;;;5014989;28;20033;-72
2021/10/29 02:10:17;;;;;;;16.55;10.88;;;9.50;99.90;;;;;;5008653;28;20022;-72
2021/10/29 02:12:43;;;;;;;15.95;10.80;;;9.40;99.90;;;;;;5016276;28;20026;-72
2021/10/29 02:15:09;;;;;;;18.00;11.38;;;9.40;99.90;;;;;;5017410;28;20026;-72
2021/10/29 02:17:35;;;;;;;18.45;11.82;;;9.40;99.90;;;;;;5018285;28;20534;-71
2021/10/29 02:20:02;;;;;;;22.65;12.02;;;9.40;99.90;;;;;;5019393;28;20072;-72
2021/10/29 02:22:28;;;;;;;18.27;10.65;;;9.40;99.90;;;;;;5020067;28;20698;-72
2021/10/29 02:24:54;;;;;;;17.98;11.20;;;9.40;99.90;;;;;;5023188;28;20030;-72
2021/10/29 02:27:19;;;;;;;15.23;10.95;;;9.40;99.90;;;;;;5015165;28;20485;-72
2021/10/29 02:29:45;;;;;;;16.80;10.98;;;9.40;99.90;;;;;;5014907;28;20041;-72
2021/10/29 02:32:11;;;;;;;18.02;11.20;;;9.40;99.90;;;;;;5016469;28;20030;-72
2021/10/29 02:34:36;;;;;;;18.77;11.93;;;9.30;99.90;;;;;;5018576;28;20035;-72
2021/10/29 02:37:02;;;;;;;18.58;11.27;;;9.20;99.90;;;;;;5012965;28;20169;-71
2021/10/29 02:39:28;;;;;;;18.15;11.82;;;9.20;99.90;;;;;;5015752;28;20108;-71
2021/10/29 02:41:54;;;;;;;16.48;11.15;;;9.20;99.90;;;;;;5012400;28;20428;-72
2021/10/29 02:44:20;;;;;;;16.40;11.05;;;9.30;99.90;;;;;;5019338;28;20025;-72
2021/10/29 02:46:46;;;;;;;17.77;12.10;;;9.20;99.90;;;;;;5021307;28;20029;-72
2021/10/29 02:49:11;;;;;;;19.50;11.35;;;9.20;99.90;;;;;;5014580;28;20392;-72
2021/10/29 02:51:37;;;;;;;23.60;12.60;;;9.20;99.90;;;;;;5015132;28;20398;-71
2021/10/29 02:54:03;;;;;;;16.23;11.20;;;9.20;99.90;;;;;;5020873;28;20429;-71
2021/10/29 02:56:29;;;;;;;19.88;12.70;;;9.20;99.90;;;;;;5016276;28;20631;-71
2021/10/29 02:58:54;;;;;;;18.08;11.82;;;9.20;99.90;;;;;;5017705;28;20037;-71
2021/10/29 03:01:20;;;;;;;18.75;12.02;;;9.20;99.90;;;;;;5019071;28;20022;-72
2021/10/29 03:03:46;;;;;;;18.30;11.80;;;9.20;99.90;;;;;;5015150;28;20215;-72
2021/10/29 03:06:11;;;;;;;19.10;12.00;;;9.30;99.90;;;;;;5020833;28;20033;-71
2021/10/29 03:08:37;;;;;;;19.85;12.77;;;9.20;99.90;;;;;;5015344;28;20029;-71
2021/10/29 03:11:03;;;;;;;18.10;11.27;;;9.20;99.90;;;;;;5019016;28;20084;-72
2021/10/29 03:13:31;;;;;;;20.13;12.40;;;9.20;99.90;;;;;;5018710;28;20103;-71
2021/10/29 03:15:57;;;;;;;19.25;12.10;;;9.20;99.90;;;;;;5016503;28;20022;-71
2021/10/29 03:18:22;;;;;;;19.25;12.30;;;9.20;99.90;;;;;;5016581;28;20085;-72
2021/10/29 03:20:48;;;;;;;20.17;12.25;;;9.20;99.90;;;;;;5012199;28;20029;-71
2021/10/29 03:23:16;;;;;;;17.58;11.43;;;9.10;99.90;;;;;;5023624;28;20029;-71
2021/10/29 03:25:43;;;;;;;21.08;12.88;;;9.10;99.90;;;;;;5019755;28;20067;-71
2021/10/29 03:28:09;;;;;;;17.73;12.23;;;9.10;99.90;;;;;;5015252;28;20033;-72
2021/10/29 03:30:35;;;;;;;20.73;13.30;;;9.10;99.90;;;;;;5019711;28;20033;-71
2021/10/29 03:33:01;;;;;;;19.92;13.88;;;9.00;99.90;;;;;;5018408;28;20105;-71
2021/10/29 03:35:27;;;;;;;22.50;13.25;;;8.90;99.90;;;;;;5021602;28;20097;-72
2021/10/29 03:40:45;;;;;;;24.13;13.70;;;8.90;99.90;;;;;;5014437;28;20048;-72
2021/10/29 03:46:16;;;;;;;23.25;13.80;;;8.80;99.90;;;;;;5021088;28;20054;-71
2021/10/29 03:51:14;;;;;;;22.38;14.25;;;8.90;99.90;;;;;;5025137;28;20415;-71
2021/10/29 03:56:26;;;;;;;22.25;14.50;;;8.90;99.90;;;;;;5014577;28;20054;-72
2021/10/29 03:58:55;;;;;;;20.38;13.60;;;8.80;99.90;;;;;;5015009;28;20124;-72
2021/10/29 04:01:21;;;;;;;20.17;14.43;;;8.80;99.90;;;;;;5014614;28;20064;-72
2021/10/29 04:03:47;;;;;;;21.15;14.23;;;8.80;99.90;;;;;;5012423;28;20152;-72
2021/10/29 04:06:13;;;;;;;23.73;14.18;;;8.80;99.90;;;;;;5017975;28;20033;-71
2021/10/29 04:08:39;;;;;;;23.83;14.50;;;8.80;99.90;;;;;;5010727;28;20034;-71
2021/10/29 04:11:06;;;;;;;23.92;13.77;;;8.80;99.90;;;;;;5010196;28;20091;-72
2021/10/29 04:13:38;;;;;;;20.73;13.68;;;8.80;99.90;;;;;;5014882;28;20025;-72
2021/10/29 04:16:04;;;;;;;23.52;14.52;;;8.80;99.90;;;;;;5005516;28;20510;-72
2021/10/29 04:18:33;;;;;;;20.63;14.30;;;8.80;99.90;;;;;;5014799;28;20033;-72
2021/10/29 04:21:00;;;;;;;22.48;14.40;;;8.80;99.90;;;;;;5036332;28;20022;-72
2021/10/29 04:23:26;;;;;;;21.38;14.20;;;8.80;99.90;;;;;;5022876;28;20099;-71
2021/10/29 04:25:52;;;;;;;25.65;13.73;;;8.80;99.90;;;;;;5026006;28;20045;-72
2021/10/29 04:28:18;;;;;;;21.45;13.30;;;8.80;99.90;;;;;;5019999;28;20049;-72
2021/10/29 04:30:45;;;;;;;23.00;13.60;;;8.80;99.90;;;;;;5010164;28;20561;-71
2021/10/29 04:33:12;;;;;;;19.90;13.93;;;8.80;99.90;;;;;;5016861;28;20116;-72
2021/10/29 04:35:41;;;;;;;19.58;12.98;;;8.80;99.90;;;;;;5020016;28;20108;-72
2021/10/29 04:38:11;;;;;;;21.10;13.43;;;8.80;99.90;;;;;;5008973;28;20087;-71
2021/10/29 04:40:39;;;;;;;24.67;15.30;;;8.70;99.90;;;;;;5021344;28;20415;-71
2021/10/29 04:43:06;;;;;;;26.05;14.88;;;8.70;99.90;;;;;;5019867;28;20040;-71
2021/10/29 04:45:33;;;;;;;26.95;15.10;;;8.60;99.90;;;;;;5012338;28;20029;-71
2021/10/29 04:48:03;;;;;;;21.75;13.77;;;8.60;99.90;;;;;;5017743;28;20022;-71
2021/10/29 04:50:29;;;;;;;23.30;14.18;;;8.60;99.90;;;;;;5009108;28;20038;-72
2021/10/29 04:52:54;;;;;;;26.42;15.32;;;8.60;99.90;;;;;;5014160;28;20483;-71
2021/10/29 04:55:20;;;;;;;20.67;14.52;;;8.60;99.90;;;;;;5017093;28;20029;-71
2021/10/29 04:57:46;;;;;;;25.92;14.68;;;8.60;99.90;;;;;;5015908;28;20030;-75
2021/10/29 05:00:12;;;;;;;23.50;14.20;;;8.60;99.90;;;;;;5015738;28;20471;-73
2021/10/29 05:02:38;;;;;;;21.08;13.73;;;8.60;99.90;;;;;;5015759;28;20095;-73
2021/10/29 05:05:07;;;;;;;19.33;13.25;;;8.60;99.90;;;;;;5003466;28;20554;-73
2021/10/29 05:07:34;;;;;;;23.25;15.05;;;8.60;99.90;;;;;;5009277;28;20034;-73
2021/10/29 05:09:59;;;;;;;22.85;13.55;;;8.60;99.90;;;;;;5011245;28;20606;-72
2021/10/29 05:12:26;;;;;;;22.23;13.90;;;8.60;99.90;;;;;;5019452;28;20091;-72
2021/10/29 05:14:55;;;;;;;21.60;13.13;;;8.60;99.90;;;;;;5010931;28;20103;-71
2021/10/29 05:17:21;;;;;;;23.30;13.35;;;8.60;99.90;;;;;;5007775;28;20514;-72
2021/10/29 05:19:46;;;;;;;24.40;14.52;;;8.50;99.90;;;;;;5013924;28;20026;-72
2021/10/29 05:22:12;;;;;;;23.27;14.48;;;8.60;99.90;;;;;;5019716;28;20021;-75
2021/10/29 05:24:38;;;;;;;24.67;14.10;;;8.50;99.90;;;;;;5017404;28;20029;-72
2021/10/29 05:27:05;;;;;;;22.73;13.20;;;8.50;99.90;;;;;;5019272;28;20026;-73
2021/10/29 05:29:30;;;;;;;25.85;14.90;;;8.50;99.90;;;;;;5010113;28;20025;-73
2021/10/29 05:32:00;;;;;;;24.35;14.43;;;8.40;99.90;;;;;;5017302;28;20088;-73
2021/10/29 05:34:27;;;;;;;22.67;13.85;;;8.40;99.90;;;;;;5014092;28;20430;-73
2021/10/29 05:36:55;;;;;;;24.70;14.32;;;8.40;99.90;;;;;;5008773;28;20060;-74
2021/10/29 05:39:21;;;;;;;23.08;15.23;;;8.50;99.90;;;;;;5010596;28;20033;-74
2021/10/29 05:41:49;;;;;;;26.70;14.27;;;8.50;99.90;;;;;;5019710;28;20530;-73
2021/10/29 05:44:16;;;;;;;22.67;13.27;;;8.50;99.90;;;;;;5009931;28;20080;-73
2021/10/29 05:46:43;;;;;;;25.13;14.23;;;8.50;99.90;;;;;;5019778;28;20480;-72
2021/10/29 05:49:11;;;;;;;23.33;14.07;;;8.40;99.90;;;;;;5012342;28;20042;-73
2021/10/29 05:51:43;;;;;;;23.25;14.25;;;8.40;99.90;;;;;;5018607;28;20094;-73
2021/10/29 05:54:13;;;;;;;26.50;14.40;;;8.40;99.90;;;;;;5015738;28;20026;-73
2021/10/29 05:56:39;;;;;;;24.67;15.27;;;8.50;99.90;;;;;;5021958;28;20036;-73
2021/10/29 05:59:05;;;;;;;20.50;11.85;;;8.40;99.90;;;;;;5021164;28;20029;-73
2021/10/29 06:01:32;;;;;;;26.20;14.75;;;8.50;99.90;;;;;;5021185;28;20543;-74
2021/10/29 06:03:58;;;;;;;26.70;14.52;;;8.60;99.90;;;;;;5017053;28;20030;-73
2021/10/29 06:06:24;;;;;;;23.60;14.75;;;8.60;99.90;;;;;;5018233;28;20027;-73
2021/10/29 06:08:50;;;;;;;26.23;15.70;;;8.60;99.90;;;;;;5011509;28;20069;-73
2021/10/29 06:11:15;;;;;;;25.52;14.70;;;8.50;99.90;;;;;;5019480;28;20071;-75
2021/10/29 06:13:42;;;;;;;26.65;15.25;;;8.50;99.90;;;;;;5016350;28;20030;-74
2021/10/29 06:16:09;;;;;;;28.10;14.80;;;8.40;99.90;;;;;;5022601;28;20026;-76
2021/10/29 06:18:35;;;;;;;28.95;15.63;;;8.40;99.90;;;;;;5016958;28;20171;-74
2021/10/29 06:21:01;;;;;;;26.08;16.08;;;8.40;99.90;;;;;;5018685;28;20468;-73
2021/10/29 06:23:36;;;;;;;26.13;14.75;;;8.40;99.90;;;;;;5020760;28;20416;-71
2021/10/29 06:26:11;;;;;;;26.65;14.98;;;8.30;99.90;;;;;;5020527;28;20141;-70
2021/10/29 06:28:37;;;;;;;26.35;14.35;;;8.30;99.90;;;;;;5020404;28;20025;-71
2021/10/29 06:31:02;;;;;;;26.67;14.23;;;8.30;99.90;;;;;;5018142;28;20032;-71
2021/10/29 06:33:29;;;;;;;23.95;14.48;;;8.30;99.90;;;;;;5035337;28;20034;-70
2021/10/29 06:35:58;;;;;;;28.98;15.07;;;8.40;99.90;;;;;;5021159;28;20022;-73
2021/10/29 06:38:25;;;;;;;26.05;15.23;;;8.40;99.90;;;;;;5018267;28;20077;-78
2021/10/29 06:40:51;;;;;;;25.85;14.68;;;8.40;99.90;;;;;;5025472;28;20033;-78
2021/10/29 06:43:29;;;;;;;26.77;15.93;;;8.40;99.90;;;;;;5016282;28;20025;-74
2021/10/29 06:46:17;;;;;;;27.73;15.70;;;8.40;99.90;;;;;;5017878;28;20032;-76
2021/10/29 07:02:29;;;;;;;24.48;14.88;;;8.40;99.90;;;;;;5020986;28;21844;-76
2021/10/29 07:05:10;;;;;;;26.73;14.95;;;8.40;99.90;;;;;;5013995;28;20038;-77
2021/10/29 07:40:18;;;;;;;24.65;14.32;;;8.60;99.90;;;;;;5012765;28;20076;-73
2021/10/29 07:43:04;;;;;;;23.92;13.88;;;8.60;99.90;;;;;;5012870;28;20026;-74
2021/10/29 07:45:30;;;;;;;26.63;14.75;;;8.60;99.90;;;;;;5018309;28;20025;-75
2021/10/29 07:47:57;;;;;;;25.08;14.50;;;8.70;99.90;;;;;;5010483;28;20100;-73
2021/10/29 07:50:26;;;;;;;26.25;14.27;;;8.70;99.90;;;;;;5008215;28;20192;-73
2021/10/29 07:52:57;;;;;;;26.92;13.73;;;8.70;99.90;;;;;;5012475;28;20503;-74
2021/10/29 07:55:24;;;;;;;26.75;15.23;;;8.70;99.90;;;;;;5019276;28;20033;-73
2021/10/29 07:57:51;;;;;;;24.75;15.00;;;8.80;99.90;;;;;;5019162;28;20022;-74
2021/10/29 08:00:20;;;;;;;26.83;14.82;;;8.80;99.90;;;;;;5019270;28;20110;-73
2021/10/29 08:02:51;;;;;;;27.52;14.77;;;8.80;99.90;;;;;;5018439;28;20018;-74
2021/10/29 08:05:18;;;;;;;24.60;14.88;;;9.00;99.90;;;;;;5016811;28;20022;-73
2021/10/29 08:07:44;;;;;;;25.85;14.98;;;9.20;99.90;;;;;;5007720;28;21814;-73
2021/10/29 08:10:10;;;;;;;26.10;14.23;;;9.10;99.90;;;;;;5015151;28;20435;-74
2021/10/29 08:12:37;;;;;;;24.83;14.70;;;9.10;99.90;;;;;;5018332;28;20029;-73
2021/10/29 08:15:05;;;;;;;26.92;13.80;;;9.10;99.90;;;;;;5010167;28;20052;-74
2021/10/29 08:17:33;;;;;;;24.25;13.30;;;9.00;99.90;;;;;;5016440;28;20428;-73
2021/10/29 08:20:00;;;;;;;22.02;13.25;;;9.10;99.90;;;;;;5012611;28;20026;-73
2021/10/29 08:22:26;;;;;;;24.63;13.93;;;9.10;99.90;;;;;;5017117;28;20125;-74
2021/10/29 08:24:52;;;;;;;28.00;13.98;;;9.10;99.90;;;;;;5009917;28;20489;-73
2021/10/29 08:27:17;;;;;;;25.73;14.23;;;9.10;99.90;;;;;;5013945;28;20037;-73
2021/10/29 08:29:43;;;;;;;25.30;13.95;;;9.10;99.90;;;;;;5008971;28;20030;-73
2021/10/29 08:32:10;;;;;;;24.60;13.20;;;9.20;99.90;;;;;;5013023;28;20109;-74
2021/10/29 08:34:36;;;;;;;24.17;13.95;;;9.20;99.90;;;;;;5015519;28;20042;-73
2021/10/29 08:37:05;;;;;;;25.95;13.13;;;9.30;99.90;;;;;;5010744;28;20072;-73
2021/10/29 08:39:32;;;;;;;23.25;13.32;;;9.30;99.90;;;;;;5014423;28;20022;-72
2021/10/29 08:41:59;;;;;;;29.13;13.68;;;9.40;99.90;;;;;;5017226;28;20028;-72
2021/10/29 08:44:27;;;;;;;22.88;12.93;;;9.40;99.90;;;;;;5009340;28;20038;-73
2021/10/29 08:46:53;;;;;;;27.10;14.43;;;9.40;99.90;;;;;;5010879;28;20038;-73
2021/10/29 08:49:20;;;;;;;26.13;13.60;;;9.40;99.90;;;;;;5010582;28;20502;-73
2021/10/29 08:51:46;;;;;;;24.33;14.43;;;9.50;99.90;;;;;;5018426;28;20372;-73
2021/10/29 08:54:12;;;;;;;25.38;13.73;;;9.60;99.90;;;;;;5009926;28;20030;-74
2021/10/29 08:56:38;;;;;;;27.00;14.15;;;9.60;99.90;;;;;;5013062;28;20068;-73
2021/10/29 08:59:28;;;;;;;25.98;14.43;;;9.60;99.90;;;;;;5013831;28;20018;-73
2021/10/29 09:32:32;;;;;;;20.52;11.65;;;10.40;99.90;;;;;;5013919;28;20529;-75
2021/10/29 09:35:12;;;;;;;23.08;12.85;;;10.50;99.90;;;;;;5014594;28;21423;-74
2021/10/29 09:38:02;;;;;;;20.60;11.68;;;10.50;99.90;;;;;;5013887;28;20022;-74
2021/10/29 09:40:32;;;;;;;21.63;11.45;;;10.60;99.90;;;;;;5014073;28;20080;-74
2021/10/29 09:43:13;;;;;;;22.42;11.57;;;10.60;99.90;;;;;;5011373;28;20080;-74
2021/10/29 09:45:46;;;;;;;;;;;10.70;99.90;;;;;;5010880;28;20022;-74
2021/10/29 09:48:21;;;;;;;21.48;11.98;;;10.80;99.90;;;;;;5007015;28;20419;-74
2021/10/29 09:50:55;;;;;;;20.98;11.65;;;10.90;99.90;;;;;;5009083;28;20030;-73
2021/10/29 09:53:40;;;;;;;17.83;11.25;;;10.90;99.90;;;;;;5006925;28;20488;-74
2021/10/29 09:56:16;;;;;;;18.60;11.40;;;11.00;99.90;;;;;;5007382;28;20072;-74
2021/10/29 09:58:43;;;;;;;22.35;11.38;;;11.10;99.90;;;;;;5007037;28;20636;-74
2021/10/29 10:01:10;;;;;;;19.00;11.77;;;11.10;99.90;;;;;;5008812;28;20101;-75
2021/10/29 10:03:38;;;;;;;19.83;11.07;;;11.20;99.90;;;;;;5007673;28;20054;-73
2021/10/29 10:06:05;;;;;;;21.40;12.43;;;11.30;99.90;;;;;;5006763;28;20053;-73
2021/10/29 10:08:32;;;;;;;21.35;11.18;;;11.30;99.90;;;;;;5008656;28;20056;-74
2021/10/29 10:10:59;;;;;;;19.48;11.50;;;11.40;99.90;;;;;;5009443;28;20395;-75
2021/10/29 10:13:27;;;;;;;21.80;11.70;;;11.50;99.90;;;;;;5009357;28;20044;-74
2021/10/29 10:15:55;;;;;;;19.20;11.07;;;11.50;99.90;;;;;;5011016;28;20026;-74
2021/10/29 10:18:22;;;;;;;19.25;11.35;;;11.60;99.90;;;;;;5009640;28;20025;-74
2021/10/29 10:20:51;;;;;;;17.38;10.35;;;11.80;99.90;;;;;;5010088;28;20838;-74
2021/10/29 10:23:20;;;;;;;15.90;10.02;;;11.90;99.90;;;;;;5009751;28;20605;-74
2021/10/29 10:28:56;;;;;;;17.25;10.23;;;12.10;99.90;;;;;;5012845;28;20109;-74
2021/10/29 10:54:41;;;;;;;11.48;7.43;;;21.80;70.00;;;;;;5009998;28;20030;-74
2021/10/29 10:59:55;;;;;;;12.73;8.38;;;22.90;59.40;;;;;;5013607;28;20562;-73
2021/10/29 11:10:21;;;;;;;12.70;7.60;;;21.10;63.70;;;;;;5017760;28;20037;-77
2021/10/29 11:12:47;;;;;;;12.95;7.25;;;20.20;68.50;;;;;;5017865;28;20030;-78
2021/10/29 11:15:16;;;;;;;17.13;8.55;;;19.40;72.20;;;;;;5023785;28;20361;-76
2021/10/29 11:17:47;;;;;;;16.02;8.27;;;18.60;76.80;;;;;;5021914;28;20387;-76
2021/10/29 11:20:51;;;;;;;13.40;8.27;;;18.00;81.60;;;;;;5011941;28;20502;-77
2021/10/29 11:23:20;;;;;;;13.43;7.32;;;17.50;84.80;;;;;;4962459;28;20105;-77
2021/10/29 11:26:06;;;;;;;18.35;7.40;;;17.10;87.40;;;;;;5010564;28;20562;-76
2021/10/29 11:28:48;;;;;;;14.10;7.28;;;16.70;90.00;;;;;;5014180;28;20526;-74
2021/10/29 11:31:21;;;;;;;11.85;7.55;;;16.40;91.40;;;;;;4998277;28;20034;-79
2021/10/29 11:33:51;;;;;;;12.05;7.30;;;16.10;91.90;;;;;;5016202;28;20034;-73
2021/10/29 11:36:24;;;;;;;13.93;7.07;;;15.90;92.60;;;;;;5011640;28;20025;-75
2021/10/29 11:38:54;;;;;;;11.35;6.78;;;15.70;93.10;;;;;;5019490;28;20026;-73
2021/10/29 11:41:29;;;;;;;10.38;6.60;;;15.60;93.60;;;;;;5015960;28;20029;-73
2021/10/29 11:44:02;;;;;;;12.30;6.30;;;15.50;94.00;;;;;;5014474;28;20026;-73
2021/10/29 11:46:29;;;;;;;7.90;5.32;;;15.40;94.10;;;;;;5018397;28;20033;-71
2021/10/29 11:49:10;;;;;;;13.40;6.53;;;15.30;94.20;;;;;;5014932;28;20104;-71
2021/10/29 11:51:38;;;;;;;11.93;6.28;;;15.30;94.70;;;;;;4994974;28;20068;-69
2021/10/29 11:54:21;;;;;;;12.07;7.05;;;15.30;94.70;;;;;;5009955;28;20568;-72
2021/10/29 12:07:34;;;;;;;11.88;5.03;;;15.20;94.50;;;;;;5012169;28;20036;-71
2021/10/29 12:10:05;;;;;;;10.93;5.28;;;15.20;94.80;;;;;;5009349;28;20028;-70
2021/10/29 12:12:37;;;;;;;9.57;5.82;;;15.30;94.70;;;;;;5016601;28;20029;-71
2021/10/29 12:15:08;;;;;;;8.15;5.00;;;15.30;94.70;;;;;;5017641;28;20049;-72
2021/10/29 12:20:32;;;;;;;11.25;5.82;;;15.30;95.00;;;;;;5015911;28;20357;-70
2021/10/29 12:23:09;;;;;;;12.55;5.55;;;15.30;95.10;;;;;;5014713;28;20029;-71
2021/10/29 12:25:43;;;;;;;12.60;5.22;;;15.40;95.00;;;;;;5015070;28;20033;-71
2021/10/29 12:28:15;;;;;;;9.18;4.93;;;15.40;94.90;;;;;;5009569;28;20056;-70
2021/10/29 12:53:04;;;;;;;7.00;4.25;;;15.70;94.20;;;;;;5015490;28;20032;-70
2021/10/29 13:03:59;;;;;;;10.80;5.45;;;15.70;94.10;;;;;;5018091;28;20053;-69
2021/10/29 13:06:31;;;;;;;7.95;4.43;;;15.80;93.90;;;;;;5014369;28;20060;-71
2021/10/29 13:08:57;;;;;;;8.68;4.45;;;15.80;94.00;;;;;;5015681;28;20369;-70
2021/10/29 13:11:25;;;;;;;8.45;4.32;;;15.90;94.10;;;;;;5012201;28;20048;-70
2021/10/29 13:14:02;;;;;;;7.30;4.35;;;15.80;94.20;;;;;;5014352;28;20034;-70
2021/10/29 13:16:29;;;;;;;10.52;4.32;;;15.90;93.80;;;;;;5012758;28;20116;-71
2021/10/29 13:27:18;;;;;;;6.82;4.05;;;15.80;93.70;;;;;;5016448;28;20033;-70
2021/10/29 13:51:09;;;;;;;5.80;3.83;;;15.60;94.00;;;;;;5012080;28;20171;-71
2021/10/29 14:33:55;;;;;;;5.10;3.65;;;15.30;94.70;;;;;;5015490;28;20503;-71
2021/10/29 14:36:23;;;;;;;5.43;3.40;;;15.20;94.90;;;;;;5016689;28;20025;-71
2021/10/29 14:38:56;;;;;;;7.32;4.05;;;15.20;94.90;;;;;;5013869;28;20021;-70
2021/10/29 14:41:34;;;;;;;7.75;5.03;;;15.10;95.10;;;;;;5013562;28;20603;-71
2021/10/29 14:44:10;;;;;;;7.70;4.10;;;15.10;95.30;;;;;;5015240;28;20037;-71
2021/10/29 14:46:52;;;;;;;7.60;4.07;;;15.00;95.60;;;;;;5025562;28;20037;-71
2021/10/29 14:49:42;;;;;;;11.18;4.82;;;15.00;95.80;;;;;;5016627;28;20105;-71
2021/10/29 15:03:47;;;;;;;10.82;4.22;;;14.70;96.40;;;;;;4985283;28;20037;-71
2021/10/29 15:06:29;;;;;;;7.07;3.40;;;14.70;96.40;;;;;;5022197;28;20053;-71
2021/10/29 15:27:57;;;;;;;7.95;3.75;;;14.50;97.30;;;;;;5017513;28;20065;-70
2021/10/29 15:30:42;;;;;;;8.98;3.53;;;14.40;97.30;;;;;;5014876;28;20051;-71
2021/10/29 15:49:03;;;;;;;6.07;3.40;;;14.20;98.00;;;;;;5016062;28;20109;-70
2021/10/29 15:51:29;;;;;;;6.07;3.42;;;14.20;98.20;;;;;;5012824;28;20054;-72
2021/10/29 15:53:55;;;;;;;6.57;3.65;;;14.10;98.30;;;;;;5018892;28;20053;-72
2021/10/29 16:03:52;;;;;;;5.65;3.80;;;14.00;98.80;;;;;;5015124;28;20028;-71
2021/10/29 16:17:19;;;;;;;9.07;4.45;;;13.70;99.30;;;;;;5014893;28;20026;-72
2021/10/29 16:19:45;;;;;;;7.07;4.25;;;13.70;99.40;;;;;;5013490;28;20165;-72
2021/10/29 16:22:22;;;;;;;7.88;4.30;;;13.60;99.60;;;;;;5017750;28;20033;-71
2021/10/29 16:24:59;;;;;;;6.82;3.72;;;13.60;99.50;;;;;;5011078;28;20041;-70
2021/10/29 16:27:34;;;;;;;5.10;3.90;;;13.60;99.60;;;;;;5018355;28;20500;-73
2021/10/29 16:29:59;;;;;;;7.53;4.07;;;13.50;99.50;;;;;;5012222;28;20030;-71
2021/10/29 16:32:50;;;;;;;7.05;3.70;;;13.50;99.60;;;;;;5013378;28;20064;-71
2021/10/29 16:35:14;;;;;;;9.27;4.30;;;13.50;99.70;;;;;;5012624;28;20526;-70
2021/10/29 16:37:40;;;;;;;8.13;4.20;;;13.40;99.70;;;;;;5015263;28;20030;-70
2021/10/29 16:40:06;;;;;;;9.05;4.15;;;13.40;99.90;;;;;;5014931;28;20030;-71
2021/10/29 16:42:32;;;;;;;9.38;4.45;;;13.40;99.80;;;;;;5020372;28;20037;-71
2021/10/29 16:44:57;;;;;;;8.18;4.43;;;13.40;99.80;;;;;;5011188;28;20076;-69
2021/10/29 16:47:24;;;;;;;7.55;4.75;;;13.30;99.80;;;;;;5016657;28;20029;-68
2021/10/29 16:49:49;;;;;;;9.90;4.90;;;13.40;99.90;;;;;;5017789;28;20116;-68
2021/10/29 16:52:15;;;;;;;10.13;5.40;;;13.30;99.90;;;;;;5012116;28;20109;-69
2021/10/29 16:54:41;;;;;;;9.68;5.30;;;13.30;99.90;;;;;;5008513;28;20038;-68
2021/10/29 16:57:06;;;;;;;9.07;5.07;;;13.30;99.90;;;;;;5012817;28;20040;-70
2021/10/29 16:59:32;;;;;;;10.30;5.40;;;13.30;99.90;;;;;;5018450;28;20026;-68
2021/10/29 17:01:58;;;;;;;6.45;4.43;;;13.30;99.90;;;;;;5015863;28;20072;-68
2021/10/29 17:04:23;;;;;;;9.02;4.97;;;13.20;99.80;;;;;;5022845;28;20061;-71
2021/10/29 17:06:49;;;;;;;9.60;4.68;;;13.20;99.90;;;;;;5013996;28;20112;-72
2021/10/29 17:09:15;;;;;;;8.73;4.60;;;13.20;99.90;;;;;;5020469;28;20518;-71
2021/10/29 17:11:41;;;;;;;8.35;4.65;;;13.20;99.90;;;;;;5016632;28;20551;-72
2021/10/29 17:14:06;;;;;;;10.52;4.20;;;13.20;99.90;;;;;;5014884;28;20041;-73
2021/10/29 17:16:32;;;;;;;9.15;4.18;;;13.10;99.90;;;;;;5011717;28;20100;-71
2021/10/29 17:18:58;;;;;;;8.85;4.40;;;13.10;99.90;;;;;;5010730;28;20052;-70
2021/10/29 17:21:23;;;;;;;8.45;4.50;;;13.10;99.90;;;;;;5010825;28;20076;-73
2021/10/29 17:23:49;;;;;;;10.65;4.75;;;13.10;99.90;;;;;;5014893;28;20088;-72
2021/10/29 17:26:15;;;;;;;6.50;4.07;;;13.10;99.90;;;;;;5009954;28;20044;-73
2021/10/29 17:28:40;;;;;;;9.68;4.57;;;13.10;99.90;;;;;;5010193;28;20400;-68
2021/10/29 17:31:06;;;;;;;8.98;4.90;;;13.10;99.90;;;;;;5008002;28;20546;-70
2021/10/29 17:33:32;;;;;;;10.07;4.45;;;13.10;99.90;;;;;;5019823;28;20177;-71
2021/10/29 17:35:58;;;;;;;10.45;4.90;;;13.10;99.90;;;;;;5011136;28;20037;-72
2021/10/29 17:38:23;;;;;;;6.45;4.03;;;13.10;99.90;;;;;;5019782;28;20110;-69
2021/10/29 17:40:49;;;;;;;10.52;4.50;;;13.10;99.90;;;;;;5006141;28;20461;-68
2021/10/29 17:43:15;;;;;;;6.07;3.67;;;13.00;99.90;;;;;;5003839;28;20022;-68
2021/10/29 17:45:43;;;;;;;7.88;3.42;;;13.00;99.90;;;;;;5013159;28;20033;-69
2021/10/29 17:48:09;;;;;;;7.40;4.05;;;13.00;99.90;;;;;;5011080;28;20026;-71